createdAt,value
2018-12-02T00:00:12.837Z,31.10
2018-12-02T00:01:12.848Z,28.90
2018-12-02T00:02:12.858Z,28.50
2018-12-02T00:03:12.875Z,26.90
2018-12-02T00:04:12.991Z,24.90
2018-12-02T00:05:13.033Z,26.40
2018-12-02T00:06:12.922Z,26.60
2018-12-02T00:07:12.938Z,27.20
2018-12-02T00:08:13.083Z,26.00
2018-12-02T00:09:13.086Z,28.40
2018-12-02T00:10:12.992Z,27.40
2018-12-02T00:11:13.015Z,26.60
2018-12-02T00:12:13.016Z,30.10
2018-12-02T00:13:13.154Z,27.40
2018-12-02T00:14:13.054Z,28.00
2018-12-02T00:15:13.159Z,29.20
2018-12-02T00:16:13.076Z,30.10
2018-12-02T00:17:13.100Z,30.10
2018-12-02T00:18:13.111Z,30.50
2018-12-02T00:19:13.130Z,29.60
2018-12-02T00:20:13.295Z,30.10
2018-12-02T00:21:13.155Z,28.10
2018-12-02T00:22:13.178Z,24.80
2018-12-02T00:23:13.249Z,26.10
2018-12-02T00:24:13.208Z,26.10
2018-12-02T00:25:13.329Z,25.80
2018-12-02T00:26:13.234Z,27.50
2018-12-02T00:27:13.252Z,26.70
2018-12-02T00:28:13.389Z,27.40
2018-12-02T00:29:13.408Z,25.10
2018-12-02T00:30:13.451Z,25.60
2018-12-02T00:31:13.332Z,24.50
2018-12-02T00:32:13.335Z,21.40
2018-12-02T00:33:13.340Z,23.50
2018-12-02T00:34:13.364Z,24.80
2018-12-02T00:35:13.474Z,23.10
2018-12-02T00:36:13.387Z,21.70
2018-12-02T00:37:13.404Z,21.10
2018-12-02T00:38:13.441Z,21.80
2018-12-02T00:39:13.434Z,20.60
2018-12-02T00:40:13.724Z,24.00
2018-12-02T00:41:13.469Z,21.90
2018-12-02T00:42:13.601Z,20.70
2018-12-02T00:43:13.535Z,18.90
2018-12-02T00:44:13.569Z,18.20
2018-12-02T00:45:13.638Z,18.30
2018-12-02T00:46:13.532Z,20.70
2018-12-02T00:47:13.557Z,20.70
2018-12-02T00:48:13.578Z,21.00
2018-12-02T00:49:13.582Z,21.90
2018-12-02T00:50:13.716Z,20.60
2018-12-02T00:51:13.742Z,21.40
2018-12-02T00:52:13.634Z,22.10
2018-12-02T00:53:13.649Z,23.50
2018-12-02T00:54:13.670Z,24.10
2018-12-02T00:55:13.826Z,22.50
2018-12-02T00:56:13.741Z,23.90
2018-12-02T00:57:13.773Z,23.60
2018-12-02T00:58:13.749Z,22.80
2018-12-02T00:59:13.766Z,23.60
2018-12-02T01:00:13.852Z,23.40
2018-12-02T01:01:13.787Z,26.80
2018-12-02T01:02:13.806Z,25.70
2018-12-02T01:03:13.810Z,24.50
2018-12-02T01:04:13.837Z,25.90
2018-12-02T01:05:13.944Z,25.00
2018-12-02T01:06:14.156Z,22.70
2018-12-02T01:07:13.861Z,25.20
2018-12-02T01:08:13.895Z,28.00
2018-12-02T01:09:13.901Z,27.40
2018-12-02T01:10:14.018Z,24.50
2018-12-02T01:11:13.924Z,24.50
2018-12-02T01:12:13.953Z,24.30
2018-12-02T01:13:13.955Z,25.70
2018-12-02T01:14:13.983Z,27.60
2018-12-02T01:15:14.132Z,29.30
2018-12-02T01:16:14.019Z,22.70
2018-12-02T01:17:14.142Z,22.90
2018-12-02T01:18:14.045Z,27.20
2018-12-02T01:19:14.048Z,27.30
2018-12-02T01:20:14.179Z,30.20
2018-12-02T01:21:14.073Z,35.30
2018-12-02T01:22:14.101Z,39.80
2018-12-02T01:23:14.109Z,36.90
2018-12-02T01:24:14.127Z,37.00
2018-12-02T01:25:14.148Z,36.60
2018-12-02T01:26:14.260Z,32.50
2018-12-02T01:27:14.291Z,34.70
2018-12-02T01:28:14.311Z,33.70
2018-12-02T01:29:14.219Z,36.10
2018-12-02T01:30:14.225Z,31.90
2018-12-02T01:31:14.228Z,31.60
2018-12-02T01:32:14.356Z,32.10
2018-12-02T01:33:14.269Z,31.90
2018-12-02T01:34:14.399Z,34.10
2018-12-02T01:35:14.306Z,33.20
2018-12-02T01:36:14.317Z,32.80
2018-12-02T01:37:14.438Z,33.80
2018-12-02T01:38:14.343Z,37.40
2018-12-02T01:39:14.359Z,41.10
2018-12-02T01:40:14.369Z,40.40
2018-12-02T01:41:14.400Z,43.30
2018-12-02T01:42:14.524Z,46.30
2018-12-02T01:43:14.413Z,46.30
2018-12-02T01:44:14.437Z,48.00
2018-12-02T01:45:14.446Z,54.70
2018-12-02T01:46:14.455Z,51.50
2018-12-02T01:47:14.750Z,49.00
2018-12-02T01:48:14.497Z,48.10
2018-12-02T01:49:14.504Z,45.40
2018-12-02T01:50:14.527Z,45.10
2018-12-02T01:51:14.530Z,44.90
2018-12-02T01:52:14.723Z,45.20
2018-12-02T01:53:14.613Z,41.30
2018-12-02T01:54:14.596Z,41.50
2018-12-02T01:55:14.616Z,41.40
2018-12-02T01:56:14.732Z,38.00
2018-12-02T01:57:14.639Z,39.40
2018-12-02T01:58:14.642Z,38.40
2018-12-02T01:59:14.655Z,38.80
2018-12-02T02:00:14.672Z,44.10
2018-12-02T02:01:14.753Z,40.70
2018-12-02T02:02:14.713Z,41.00
2018-12-02T02:03:14.718Z,44.90
2018-12-02T02:04:14.729Z,43.10
2018-12-02T02:05:14.890Z,40.40
2018-12-02T02:06:14.770Z,40.40
2018-12-02T02:07:14.785Z,41.70
2018-12-02T02:08:14.799Z,42.90
2018-12-02T02:09:14.823Z,42.60
2018-12-02T02:10:15.046Z,44.60
2018-12-02T02:11:14.851Z,44.50
2018-12-02T02:12:14.980Z,45.80
2018-12-02T02:13:14.927Z,46.00
2018-12-02T02:14:14.930Z,43.10
2018-12-02T02:15:15.003Z,44.20
2018-12-02T02:16:14.916Z,44.60
2018-12-02T02:17:14.931Z,43.20
2018-12-02T02:18:14.945Z,41.60
2018-12-02T02:19:14.969Z,41.20
2018-12-02T02:20:15.084Z,40.50
2018-12-02T02:21:14.998Z,40.70
2018-12-02T02:22:15.011Z,40.00
2018-12-02T02:23:15.036Z,41.70
2018-12-02T02:24:15.076Z,39.90
2018-12-02T02:25:15.167Z,40.60
2018-12-02T02:26:15.099Z,38.40
2018-12-02T02:27:15.128Z,38.10
2018-12-02T02:28:15.222Z,36.80
2018-12-02T02:29:15.138Z,37.20
2018-12-02T02:30:15.191Z,36.90
2018-12-02T02:31:15.146Z,35.10
2018-12-02T02:32:15.156Z,32.30
2018-12-02T02:33:15.178Z,36.70
2018-12-02T02:34:15.208Z,36.40
2018-12-02T02:35:15.330Z,36.80
2018-12-02T02:36:15.236Z,37.20
2018-12-02T02:37:19.447Z,38.90
2018-12-02T02:38:15.255Z,41.40
2018-12-02T02:39:15.286Z,37.20
2018-12-02T02:40:15.380Z,38.30
2018-12-02T02:41:15.421Z,37.30
2018-12-02T02:42:15.314Z,40.70
2018-12-02T02:43:15.453Z,39.50
2018-12-02T02:44:15.345Z,41.20
2018-12-02T02:45:15.409Z,39.90
2018-12-02T02:46:15.500Z,41.20
2018-12-02T02:47:15.401Z,39.40
2018-12-02T02:48:15.418Z,42.20
2018-12-02T02:49:15.436Z,40.50
2018-12-02T02:50:15.548Z,38.60
2018-12-02T02:51:15.449Z,40.60
2018-12-02T02:52:15.477Z,38.20
2018-12-02T02:53:15.497Z,39.80
2018-12-02T02:54:15.497Z,40.30
2018-12-02T02:55:15.620Z,39.80
2018-12-02T02:56:15.562Z,39.00
2018-12-02T02:57:15.544Z,37.90
2018-12-02T02:58:15.571Z,35.90
2018-12-02T02:59:15.568Z,36.40
2018-12-02T03:00:15.706Z,36.80
2018-12-02T03:01:15.599Z,37.10
2018-12-02T03:02:15.643Z,39.10
2018-12-02T03:03:15.643Z,38.40
2018-12-02T03:04:15.667Z,40.30
2018-12-02T03:05:15.682Z,39.50
2018-12-02T03:06:15.739Z,42.80
2018-12-02T03:07:15.707Z,42.80
2018-12-02T03:08:15.705Z,45.00
2018-12-02T03:09:15.725Z,43.70
2018-12-02T03:10:15.887Z,45.00
2018-12-02T03:11:15.785Z,44.10
2018-12-02T03:12:15.896Z,44.40
2018-12-02T03:13:15.803Z,42.70
2018-12-02T03:14:15.850Z,45.10
2018-12-02T03:15:15.983Z,47.70
2018-12-02T03:16:15.841Z,48.20
2018-12-02T03:17:15.859Z,47.60
2018-12-02T03:18:15.906Z,51.10
2018-12-02T03:19:15.884Z,52.60
2018-12-02T03:20:16.009Z,52.10
2018-12-02T03:21:15.922Z,52.70
2018-12-02T03:22:15.932Z,52.90
2018-12-02T03:23:15.941Z,54.60
2018-12-02T03:24:15.974Z,57.40
2018-12-02T03:25:16.124Z,52.50
2018-12-02T03:26:15.993Z,57.00
2018-12-02T03:27:16.003Z,56.60
2018-12-02T03:28:16.140Z,60.60
2018-12-02T03:29:16.041Z,62.10
2018-12-02T03:30:16.154Z,59.90
2018-12-02T03:31:16.060Z,62.20
2018-12-02T03:32:16.137Z,61.00
2018-12-02T03:33:16.136Z,63.50
2018-12-02T03:34:16.101Z,65.00
2018-12-02T03:35:16.126Z,63.60
2018-12-02T03:36:16.186Z,62.50
2018-12-02T03:37:16.151Z,65.80
2018-12-02T03:38:16.295Z,69.20
2018-12-02T03:39:16.199Z,68.90
2018-12-02T03:40:16.218Z,69.60
2018-12-02T03:41:16.338Z,76.60
2018-12-02T03:42:16.228Z,75.30
2018-12-02T03:43:16.243Z,74.10
2018-12-02T03:44:16.273Z,74.10
2018-12-02T03:45:16.288Z,71.90
2018-12-02T03:46:16.339Z,73.80
2018-12-02T03:47:16.314Z,75.90
2018-12-02T03:48:16.332Z,73.20
2018-12-02T03:49:16.458Z,76.30
2018-12-02T03:50:17.607Z,79.70
2018-12-02T03:51:16.477Z,70.70
2018-12-02T03:52:16.385Z,66.30
2018-12-02T03:53:16.444Z,70.00
2018-12-02T03:54:16.420Z,67.70
2018-12-02T03:55:16.430Z,73.80
2018-12-02T03:56:16.488Z,68.20
2018-12-02T03:57:16.502Z,67.90
2018-12-02T03:58:16.489Z,69.80
2018-12-02T03:59:16.479Z,71.70
2018-12-02T04:00:16.725Z,69.20
2018-12-02T04:01:16.531Z,66.60
2018-12-02T04:02:16.541Z,67.00
2018-12-02T04:03:16.542Z,68.50
2018-12-02T04:04:16.560Z,65.20
2018-12-02T04:05:16.675Z,67.40
2018-12-02T04:06:16.584Z,72.20
2018-12-02T04:07:16.632Z,69.40
2018-12-02T04:08:16.628Z,72.10
2018-12-02T04:09:16.633Z,70.20
2018-12-02T04:10:16.780Z,71.20
2018-12-02T04:11:16.718Z,67.40
2018-12-02T04:12:16.678Z,68.30
2018-12-02T04:13:16.718Z,69.30
2018-12-02T04:14:16.832Z,68.70
2018-12-02T04:15:16.784Z,64.30
2018-12-02T04:16:16.738Z,67.20
2018-12-02T04:17:16.754Z,65.00
2018-12-02T04:18:16.770Z,65.60
2018-12-02T04:19:16.790Z,64.20
2018-12-02T04:20:16.845Z,64.30
2018-12-02T04:21:16.838Z,66.20
2018-12-02T04:22:16.842Z,65.70
2018-12-02T04:23:16.892Z,65.00
2018-12-02T04:24:16.884Z,63.40
2018-12-02T04:25:17.103Z,61.70
2018-12-02T04:26:16.907Z,61.60
2018-12-02T04:27:16.908Z,60.80
2018-12-02T04:28:16.923Z,57.40
2018-12-02T04:29:16.953Z,60.70
2018-12-02T04:30:17.100Z,57.90
2018-12-02T04:31:16.978Z,58.30
2018-12-02T04:32:16.984Z,56.40
2018-12-02T04:33:17.025Z,57.30
2018-12-02T04:34:17.013Z,54.20
2018-12-02T04:35:17.074Z,48.00
2018-12-02T04:36:17.052Z,48.60
2018-12-02T04:37:17.051Z,46.40
2018-12-02T04:38:17.080Z,47.50
2018-12-02T04:39:17.096Z,45.00
2018-12-02T04:40:17.170Z,43.20
2018-12-02T04:41:17.125Z,44.20
2018-12-02T04:42:17.148Z,42.20
2018-12-02T04:43:17.152Z,41.00
2018-12-02T04:44:17.290Z,42.90
2018-12-02T04:45:17.325Z,40.10
2018-12-02T04:46:17.222Z,39.50
2018-12-02T04:47:17.242Z,39.50
2018-12-02T04:48:17.251Z,41.10
2018-12-02T04:49:17.249Z,39.80
2018-12-02T04:50:17.405Z,37.90
2018-12-02T04:51:17.277Z,36.40
2018-12-02T04:52:17.334Z,36.10
2018-12-02T04:53:17.316Z,34.00
2018-12-02T04:54:17.364Z,36.20
2018-12-02T04:55:17.434Z,36.20
2018-12-02T04:56:17.470Z,37.00
2018-12-02T04:57:17.361Z,36.20
2018-12-02T04:58:17.399Z,36.80
2018-12-02T04:59:17.384Z,36.30
2018-12-02T05:00:17.629Z,36.80
2018-12-02T05:01:17.443Z,38.00
2018-12-02T05:02:17.453Z,39.60
2018-12-02T05:03:17.449Z,37.30
2018-12-02T05:04:17.464Z,35.10
2018-12-02T05:05:17.599Z,27.50
2018-12-02T05:06:17.618Z,27.90
2018-12-02T05:07:17.521Z,27.10
2018-12-02T05:08:17.537Z,21.20
2018-12-02T05:09:17.547Z,20.70
2018-12-02T05:10:17.621Z,21.30
2018-12-02T05:11:17.592Z,21.00
2018-12-02T05:12:17.584Z,21.00
2018-12-02T05:13:17.601Z,22.50
2018-12-02T05:14:17.787Z,24.30
2018-12-02T05:15:17.742Z,21.80
2018-12-02T05:16:17.769Z,22.60
2018-12-02T05:17:17.679Z,23.80
2018-12-02T05:18:17.691Z,24.00
2018-12-02T05:19:17.812Z,25.00
2018-12-02T05:20:17.931Z,24.60
2018-12-02T05:21:17.842Z,25.20
2018-12-02T05:22:17.855Z,25.20
2018-12-02T05:23:17.873Z,21.90
2018-12-02T05:24:17.762Z,22.00
2018-12-02T05:25:18.623Z,20.40
2018-12-02T05:26:17.917Z,18.20
2018-12-02T05:27:17.809Z,18.90
2018-12-02T05:28:17.848Z,19.30
2018-12-02T05:29:17.853Z,18.80
2018-12-02T05:30:17.976Z,20.10
2018-12-02T05:31:17.903Z,20.90
2018-12-02T05:32:17.878Z,19.20
2018-12-02T05:33:18.002Z,18.80
2018-12-02T05:34:17.922Z,21.00
2018-12-02T05:35:17.966Z,18.80
2018-12-02T05:36:17.946Z,18.60
2018-12-02T05:37:17.951Z,18.40
2018-12-02T05:38:17.975Z,18.30
2018-12-02T05:39:17.976Z,17.90
2018-12-02T05:40:18.091Z,18.30
2018-12-02T05:41:18.136Z,18.90
2018-12-02T05:42:18.025Z,19.40
2018-12-02T05:43:18.051Z,19.00
2018-12-02T05:44:18.046Z,19.60
2018-12-02T05:45:18.229Z,19.40
2018-12-02T05:46:18.128Z,18.80
2018-12-02T05:47:18.115Z,19.20
2018-12-02T05:48:18.115Z,19.60
2018-12-02T05:49:18.139Z,20.30
2018-12-02T05:50:18.365Z,18.10
2018-12-02T05:51:18.153Z,16.80
2018-12-02T05:52:18.175Z,16.50
2018-12-02T05:53:18.201Z,16.90
2018-12-02T05:54:18.205Z,16.70
2018-12-02T05:55:18.340Z,15.70
2018-12-02T05:56:18.241Z,16.40
2018-12-02T05:57:18.242Z,15.40
2018-12-02T05:58:18.378Z,13.80
2018-12-02T05:59:18.268Z,12.90
2018-12-02T06:00:18.352Z,13.50
2018-12-02T06:01:18.300Z,13.20
2018-12-02T06:02:18.328Z,12.40
2018-12-02T06:03:18.327Z,12.50
2018-12-02T06:04:18.348Z,12.30
2018-12-02T06:05:18.456Z,12.80
2018-12-02T06:06:18.377Z,13.00
2018-12-02T06:07:18.397Z,11.20
2018-12-02T06:08:18.413Z,11.50
2018-12-02T06:09:18.421Z,12.00
2018-12-02T06:10:18.575Z,11.70
2018-12-02T06:11:18.440Z,12.30
2018-12-02T06:12:18.491Z,12.60
2018-12-02T06:13:18.484Z,12.40
2018-12-02T06:14:18.497Z,12.20
2018-12-02T06:15:18.661Z,12.40
2018-12-02T06:16:18.512Z,12.50
2018-12-02T06:17:18.536Z,12.30
2018-12-02T06:18:18.535Z,12.80
2018-12-02T06:19:18.568Z,12.90
2018-12-02T06:20:18.728Z,11.50
2018-12-02T06:21:18.575Z,11.50
2018-12-02T06:22:18.668Z,11.80
2018-12-02T06:23:18.677Z,11.30
2018-12-02T06:24:18.625Z,11.30
2018-12-02T06:25:18.770Z,11.40
2018-12-02T06:26:18.669Z,11.00
2018-12-02T06:27:18.690Z,10.00
2018-12-02T06:28:18.687Z,10.20
2018-12-02T06:29:18.822Z,10.70
2018-12-02T06:30:18.856Z,10.30
2018-12-02T06:31:18.725Z,10.00
2018-12-02T06:32:18.732Z,9.80
2018-12-02T06:33:18.768Z,10.30
2018-12-02T06:34:18.767Z,10.70
2018-12-02T06:35:19.054Z,10.30
2018-12-02T06:36:18.804Z,10.60
2018-12-02T06:37:18.812Z,10.20
2018-12-02T06:38:18.818Z,9.70
2018-12-02T06:39:18.892Z,10.50
2018-12-02T06:40:19.079Z,9.50
2018-12-02T06:41:18.860Z,10.70
2018-12-02T06:42:18.871Z,10.00
2018-12-02T06:43:18.911Z,9.80
2018-12-02T06:44:18.932Z,10.40
2018-12-02T06:45:19.067Z,10.10
2018-12-02T06:46:18.944Z,9.60
2018-12-02T06:47:18.952Z,9.40
2018-12-02T06:48:18.972Z,10.70
2018-12-02T06:49:18.972Z,9.90
2018-12-02T06:50:19.114Z,9.80
2018-12-02T06:51:19.055Z,9.60
2018-12-02T06:52:19.040Z,9.80
2018-12-02T06:53:19.044Z,9.90
2018-12-02T06:54:19.066Z,9.60
2018-12-02T06:55:19.112Z,10.80
2018-12-02T06:56:19.224Z,10.10
2018-12-02T06:57:19.091Z,11.10
2018-12-02T06:58:19.117Z,11.20
2018-12-02T06:59:19.134Z,11.20
2018-12-02T07:00:19.257Z,12.60
2018-12-02T07:01:19.321Z,11.60
2018-12-02T07:02:19.161Z,11.70
2018-12-02T07:03:19.187Z,11.80
2018-12-02T07:04:19.186Z,12.10
2018-12-02T07:05:19.219Z,11.80
2018-12-02T07:06:19.366Z,12.10
2018-12-02T07:07:19.227Z,12.30
2018-12-02T07:08:19.366Z,13.10
2018-12-02T07:09:19.272Z,13.20
2018-12-02T07:10:19.285Z,13.50
2018-12-02T07:11:19.392Z,12.20
2018-12-02T07:12:19.422Z,13.80
2018-12-02T07:13:19.304Z,13.20
2018-12-02T07:14:19.327Z,12.90
2018-12-02T07:15:19.465Z,13.60
2018-12-02T07:16:19.461Z,13.40
2018-12-02T07:17:19.491Z,14.40
2018-12-02T07:18:19.382Z,12.40
2018-12-02T07:19:19.420Z,13.40
2018-12-02T07:20:19.425Z,14.00
2018-12-02T07:21:19.522Z,13.20
2018-12-02T07:22:19.453Z,14.80
2018-12-02T07:23:19.444Z,12.40
2018-12-02T07:24:19.462Z,13.20
2018-12-02T07:25:19.494Z,14.80
2018-12-02T07:26:19.691Z,14.40
2018-12-02T07:27:19.522Z,14.60
2018-12-02T07:28:19.531Z,14.00
2018-12-02T07:29:19.558Z,12.60
2018-12-02T07:30:24.897Z,13.90
2018-12-02T07:31:19.618Z,13.10
2018-12-02T07:32:19.575Z,11.30
2018-12-02T07:33:19.595Z,13.20
2018-12-02T07:34:19.606Z,13.10
2018-12-02T07:35:19.794Z,12.60
2018-12-02T07:36:19.655Z,12.70
2018-12-02T07:37:19.658Z,12.60
2018-12-02T07:38:19.675Z,13.10
2018-12-02T07:39:19.672Z,12.50
2018-12-02T07:40:19.748Z,10.90
2018-12-02T07:41:19.701Z,12.80
2018-12-02T07:42:19.729Z,12.60
2018-12-02T07:43:19.791Z,14.10
2018-12-02T07:44:19.742Z,12.30
2018-12-02T07:45:19.906Z,12.90
2018-12-02T07:46:19.762Z,13.20
2018-12-02T07:47:19.792Z,12.20
2018-12-02T07:48:19.874Z,14.10
2018-12-02T07:49:19.817Z,12.90
2018-12-02T07:50:19.944Z,12.80
2018-12-02T07:51:19.850Z,13.90
2018-12-02T07:52:19.843Z,12.70
2018-12-02T07:53:19.871Z,11.60
2018-12-02T07:54:19.899Z,13.40
2018-12-02T07:55:20.037Z,13.00
2018-12-02T07:56:19.912Z,13.50
2018-12-02T07:57:19.982Z,12.60
2018-12-02T07:58:19.952Z,13.60
2018-12-02T07:59:19.938Z,13.10
2018-12-02T08:00:20.010Z,13.70
2018-12-02T08:01:20.035Z,14.30
2018-12-02T08:02:19.997Z,13.50
2018-12-02T08:03:20.002Z,15.00
2018-12-02T08:04:20.043Z,14.80
2018-12-02T08:05:20.043Z,15.10
2018-12-02T08:06:20.107Z,16.40
2018-12-02T08:07:20.077Z,16.70
2018-12-02T08:08:20.076Z,15.10
2018-12-02T08:09:20.130Z,15.30
2018-12-02T08:10:20.123Z,17.40
2018-12-02T08:11:20.185Z,16.20
2018-12-02T08:12:20.121Z,16.30
2018-12-02T08:13:20.265Z,16.20
2018-12-02T08:14:20.156Z,15.30
2018-12-02T08:15:20.290Z,18.10
2018-12-02T08:16:20.246Z,17.50
2018-12-02T08:17:20.205Z,16.60
2018-12-02T08:18:20.206Z,18.40
2018-12-02T08:19:20.212Z,15.00
2018-12-02T08:20:20.236Z,15.90
2018-12-02T08:21:20.398Z,15.70
2018-12-02T08:22:20.255Z,17.00
2018-12-02T08:23:20.286Z,19.80
2018-12-02T08:24:20.354Z,17.30
2018-12-02T08:25:20.312Z,15.50
2018-12-02T08:26:20.359Z,18.60
2018-12-02T08:27:20.324Z,16.20
2018-12-02T08:28:20.367Z,15.20
2018-12-02T08:29:20.354Z,17.00
2018-12-02T08:30:20.373Z,15.10
2018-12-02T08:31:20.504Z,15.80
2018-12-02T08:32:20.398Z,14.60
2018-12-02T08:33:20.442Z,14.30
2018-12-02T08:34:20.441Z,15.20
2018-12-02T08:35:20.432Z,14.90
2018-12-02T08:36:20.523Z,13.60
2018-12-02T08:37:20.481Z,15.20
2018-12-02T08:38:20.607Z,12.80
2018-12-02T08:39:20.496Z,13.10
2018-12-02T08:40:20.516Z,13.90
2018-12-02T08:41:20.625Z,13.10
2018-12-02T08:42:20.665Z,12.40
2018-12-02T08:43:20.568Z,13.20
2018-12-02T08:44:20.570Z,12.60
2018-12-02T08:45:20.573Z,11.90
2018-12-02T08:46:20.643Z,11.50
2018-12-02T08:47:20.607Z,13.00
2018-12-02T08:48:20.670Z,13.20
2018-12-02T08:49:20.663Z,11.10
2018-12-02T08:50:20.698Z,11.30
2018-12-02T08:51:20.813Z,10.80
2018-12-02T08:52:20.677Z,10.40
2018-12-02T08:53:20.692Z,10.20
2018-12-02T08:54:20.707Z,9.80
2018-12-02T08:55:20.717Z,9.90
2018-12-02T08:56:20.845Z,8.50
2018-12-02T08:57:20.751Z,8.30
2018-12-02T08:58:20.789Z,7.80
2018-12-02T08:59:20.903Z,8.30
2018-12-02T09:00:20.794Z,8.30
2018-12-02T09:01:20.873Z,7.60
2018-12-02T09:02:20.829Z,7.50
2018-12-02T09:03:20.838Z,7.40
2018-12-02T09:04:20.874Z,6.60
2018-12-02T09:05:20.875Z,7.90
2018-12-02T09:06:20.989Z,6.60
2018-12-02T09:07:20.904Z,6.70
2018-12-02T09:08:20.902Z,6.50
2018-12-02T09:09:20.926Z,5.80
2018-12-02T09:10:20.956Z,7.50
2018-12-02T09:11:21.015Z,6.60
2018-12-02T09:12:21.015Z,7.30
2018-12-02T09:13:21.030Z,7.10
2018-12-02T09:14:21.004Z,8.30
2018-12-02T09:15:21.026Z,7.60
2018-12-02T09:16:21.207Z,7.70
2018-12-02T09:17:21.059Z,7.30
2018-12-02T09:18:21.063Z,7.10
2018-12-02T09:19:21.199Z,7.10
2018-12-02T09:20:21.216Z,7.10
2018-12-02T09:21:21.156Z,6.50
2018-12-02T09:22:21.124Z,7.50
2018-12-02T09:23:21.155Z,9.30
2018-12-02T09:24:21.309Z,7.30
2018-12-02T09:25:21.170Z,7.40
2018-12-02T09:26:21.183Z,7.10
2018-12-02T09:27:21.203Z,7.30
2018-12-02T09:28:21.217Z,6.90
2018-12-02T09:29:21.381Z,7.30
2018-12-02T09:30:21.371Z,7.60
2018-12-02T09:31:21.274Z,7.00
2018-12-02T09:32:21.276Z,7.10
2018-12-02T09:33:21.308Z,7.40
2018-12-02T09:34:21.467Z,7.70
2018-12-02T09:35:21.328Z,9.10
2018-12-02T09:36:21.331Z,7.50
2018-12-02T09:37:21.371Z,7.20
2018-12-02T09:38:21.401Z,6.90
2018-12-02T09:39:21.531Z,7.10
2018-12-02T09:40:21.409Z,7.30
2018-12-02T09:41:21.435Z,6.70
2018-12-02T09:42:21.446Z,6.40
2018-12-02T09:43:21.453Z,6.20
2018-12-02T09:44:21.504Z,6.20
2018-12-02T09:45:21.490Z,5.90
2018-12-02T09:46:21.509Z,5.60
2018-12-02T09:47:21.634Z,5.60
2018-12-02T09:48:21.531Z,5.60
2018-12-02T09:49:21.687Z,6.30
2018-12-02T09:50:21.566Z,6.40
2018-12-02T09:51:21.601Z,6.60
2018-12-02T09:52:21.639Z,5.50
2018-12-02T09:53:21.611Z,5.70
2018-12-02T09:54:23.447Z,5.30
2018-12-02T09:55:21.659Z,5.10
2018-12-02T09:56:21.670Z,4.80
2018-12-02T09:57:21.716Z,5.50
2018-12-02T09:58:21.691Z,4.90
2018-12-02T09:59:21.762Z,7.10
2018-12-02T10:00:21.843Z,4.80
2018-12-02T10:01:21.739Z,4.60
2018-12-02T10:02:21.767Z,5.30
2018-12-02T10:03:21.764Z,5.00
2018-12-02T10:04:21.852Z,5.00
2018-12-02T10:05:21.904Z,5.20
2018-12-02T10:06:21.865Z,4.70
2018-12-02T10:07:21.851Z,6.60
2018-12-02T10:08:21.852Z,4.70
2018-12-02T10:09:21.865Z,5.10
2018-12-02T10:10:22.929Z,5.30
2018-12-02T10:11:21.903Z,5.10
2018-12-02T10:12:22.037Z,4.50
2018-12-02T10:13:21.924Z,4.50
2018-12-02T10:14:21.966Z,6.10
2018-12-02T10:15:22.086Z,5.00
2018-12-02T10:16:22.153Z,4.60
2018-12-02T10:17:22.042Z,5.00
2018-12-02T10:18:22.034Z,4.60
2018-12-02T10:19:22.018Z,4.70
2018-12-02T10:20:22.057Z,4.40
2018-12-02T10:21:22.178Z,4.00
2018-12-02T10:22:22.066Z,4.00
2018-12-02T10:23:22.083Z,4.50
2018-12-02T10:24:22.105Z,4.20
2018-12-02T10:25:22.125Z,4.30
2018-12-02T10:26:22.197Z,3.80
2018-12-02T10:27:22.180Z,4.10
2018-12-02T10:28:22.297Z,4.10
2018-12-02T10:29:22.202Z,3.90
2018-12-02T10:30:22.214Z,3.80
2018-12-02T10:31:22.284Z,4.10
2018-12-02T10:32:22.251Z,3.80
2018-12-02T10:33:22.268Z,3.70
2018-12-02T10:34:22.292Z,3.70
2018-12-02T10:35:22.304Z,4.20
2018-12-02T10:36:22.414Z,4.00
2018-12-02T10:37:22.327Z,3.90
2018-12-02T10:38:22.350Z,4.40
2018-12-02T10:39:22.379Z,3.40
2018-12-02T10:40:22.391Z,4.20
2018-12-02T10:41:22.502Z,3.90
2018-12-02T10:42:22.419Z,4.10
2018-12-02T10:43:22.443Z,4.40
2018-12-02T10:44:22.473Z,3.70
2018-12-02T10:45:22.493Z,3.50
2018-12-02T10:46:22.605Z,6.90
2018-12-02T10:47:22.525Z,4.90
2018-12-02T10:48:22.651Z,4.40
2018-12-02T10:49:22.568Z,4.90
2018-12-02T10:50:22.698Z,4.30
2018-12-02T10:51:22.646Z,4.90
2018-12-02T10:52:22.727Z,4.00
2018-12-02T10:53:22.639Z,5.60
2018-12-02T10:54:22.734Z,5.20
2018-12-02T10:55:22.684Z,5.00
2018-12-02T10:56:22.692Z,3.90
2018-12-02T10:57:22.706Z,5.10
2018-12-02T10:58:22.737Z,4.00
2018-12-02T10:59:22.958Z,5.10
2018-12-02T11:00:22.759Z,3.80
2018-12-02T11:01:22.897Z,4.80
2018-12-02T11:02:22.801Z,4.90
2018-12-02T11:03:22.826Z,5.00
2018-12-02T11:04:22.940Z,3.70
2018-12-02T11:05:22.882Z,3.10
2018-12-02T11:06:22.870Z,3.70
2018-12-02T11:07:22.883Z,4.30
2018-12-02T11:08:22.908Z,3.90
2018-12-02T11:09:23.102Z,5.80
2018-12-02T11:10:22.943Z,5.00
2018-12-02T11:11:22.988Z,3.80
2018-12-02T11:12:22.991Z,2.80
2018-12-02T11:13:23.024Z,2.80
2018-12-02T11:14:23.128Z,3.00
2018-12-02T11:15:23.083Z,3.00
2018-12-02T11:16:23.086Z,3.30
2018-12-02T11:17:23.120Z,4.00
2018-12-02T11:18:23.123Z,3.10
2018-12-02T11:19:23.203Z,3.70
2018-12-02T11:20:23.157Z,3.20
2018-12-02T11:21:23.300Z,4.80
2018-12-02T11:22:23.185Z,3.80
2018-12-02T11:23:23.232Z,3.50
2018-12-02T11:24:23.509Z,3.00
2018-12-02T11:25:23.255Z,6.60
2018-12-02T11:26:23.272Z,3.90
2018-12-02T11:27:23.311Z,3.10
2018-12-02T11:28:23.315Z,4.00
2018-12-02T11:29:23.447Z,3.00
2018-12-02T11:30:23.364Z,2.70
2018-12-02T11:31:23.377Z,2.50
2018-12-02T11:32:23.410Z,3.00
2018-12-02T11:33:23.422Z,3.00
2018-12-02T11:34:23.595Z,2.50
2018-12-02T11:35:23.472Z,2.60
2018-12-02T11:36:23.475Z,2.90
2018-12-02T11:37:23.571Z,2.90
2018-12-02T11:38:23.647Z,2.80
2018-12-02T11:39:23.704Z,3.30
2018-12-02T11:40:23.560Z,2.90
2018-12-02T11:41:23.593Z,2.50
2018-12-02T11:42:23.631Z,2.60
2018-12-02T11:43:23.754Z,2.90
2018-12-02T11:44:23.877Z,2.60
2018-12-02T11:45:23.669Z,3.40
2018-12-02T11:46:23.823Z,3.70
2018-12-02T11:47:23.766Z,3.90
2018-12-02T11:48:23.762Z,3.00
2018-12-02T11:49:23.911Z,3.70
2018-12-02T11:50:23.826Z,4.50
2018-12-02T11:51:23.807Z,3.80
2018-12-02T11:52:23.954Z,3.10
2018-12-02T11:53:23.857Z,3.50
2018-12-02T11:54:23.982Z,2.80
2018-12-02T11:55:23.903Z,2.70
2018-12-02T11:56:23.916Z,2.80
2018-12-02T11:57:26.608Z,3.00
2018-12-02T11:58:23.953Z,2.70
2018-12-02T11:59:24.146Z,3.10
2018-12-02T12:00:24.129Z,2.90
2018-12-02T12:01:24.033Z,2.50
2018-12-02T12:02:24.062Z,2.50
2018-12-02T12:03:24.093Z,3.00
2018-12-02T12:04:24.199Z,2.60
2018-12-02T12:05:24.143Z,1.80
2018-12-02T12:06:24.182Z,2.00
2018-12-02T12:07:24.161Z,1.90
2018-12-02T12:08:24.186Z,2.00
2018-12-02T12:09:24.351Z,2.80
2018-12-02T12:10:24.244Z,2.20
2018-12-02T12:11:24.263Z,2.10
2018-12-02T12:12:24.406Z,2.10
2018-12-02T12:13:24.306Z,2.10
2018-12-02T12:14:24.454Z,1.80
2018-12-02T12:15:24.480Z,2.00
2018-12-02T12:16:24.374Z,1.60
2018-12-02T12:17:24.434Z,2.40
2018-12-02T12:18:24.558Z,1.90
2018-12-02T12:19:24.521Z,2.10
2018-12-02T12:20:24.514Z,2.00
2018-12-02T12:21:24.519Z,2.20
2018-12-02T12:22:24.543Z,2.20
2018-12-02T12:23:24.568Z,2.00
2018-12-02T12:24:24.636Z,2.20
2018-12-02T12:25:24.613Z,2.00
2018-12-02T12:26:24.641Z,2.20
2018-12-02T12:27:24.779Z,2.20
2018-12-02T12:28:24.686Z,2.50
2018-12-02T12:29:24.810Z,2.50
2018-12-02T12:30:24.751Z,2.00
2018-12-02T12:31:24.790Z,2.60
2018-12-02T12:32:24.772Z,1.70
2018-12-02T12:33:24.835Z,2.30
2018-12-02T12:34:24.920Z,2.10
2018-12-02T12:35:24.844Z,1.80
2018-12-02T12:36:24.863Z,2.10
2018-12-02T12:37:24.907Z,1.90
2018-12-02T12:38:24.911Z,1.90
2018-12-02T12:39:24.982Z,2.00
2018-12-02T12:40:24.957Z,2.00
2018-12-02T12:41:24.985Z,1.90
2018-12-02T12:42:25.012Z,2.20
2018-12-02T12:43:25.153Z,2.10
2018-12-02T12:44:25.102Z,1.90
2018-12-02T12:45:25.081Z,1.60
2018-12-02T12:46:25.110Z,1.80
2018-12-02T12:47:25.139Z,2.30
2018-12-02T12:48:25.164Z,2.10
2018-12-02T12:49:25.293Z,1.80
2018-12-02T12:50:25.214Z,2.20
2018-12-02T12:51:25.244Z,2.30
2018-12-02T12:52:25.275Z,1.80
2018-12-02T12:53:25.280Z,2.10
2018-12-02T12:54:25.472Z,3.00
2018-12-02T12:55:25.340Z,3.80
2018-12-02T12:56:25.367Z,3.20
2018-12-02T12:57:25.379Z,3.20
2018-12-02T12:58:25.403Z,2.50
2018-12-02T12:59:25.542Z,2.10
2018-12-02T13:00:25.449Z,1.70
2018-12-02T13:01:25.472Z,2.10